Time;durP1;ratioP1;P1;durP2;ratioP2;P2;SDS_P1;SDS_P2;PMS_P1;PMS_P2;Temp;Humidity;BMP_temperature;BMP_pressure;BME280_temperature;BME280_humidity;BME280_pressure;Samples;Min_cycle;Max_cycle;Signal;HPM_P1;HPM_P2
2023/09/20 00:02:23;;;;;;;3.75;2.10;;;;;;;;;;6236625;28;20296;-69
2023/09/20 00:05:27;;;;;;;3.60;1.83;;;;;;;;;;6236892;28;20296;-70
2023/09/20 00:08:31;;;;;;;4.32;1.90;;;;;;;;;;6237024;28;20300;-70
2023/09/20 00:11:35;;;;;;;2.40;1.80;;;;;;;;;;6237228;28;20320;-69
2023/09/20 00:14:38;;;;;;;2.83;1.73;;;;;;;;;;6237008;28;20292;-70
2023/09/20 00:17:44;;;;;;;3.53;1.50;;;;;;;;;;6237169;28;20612;-69
2023/09/20 00:20:48;;;;;;;2.13;1.73;;;;;;;;;;6236653;28;20312;-69
2023/09/20 00:23:52;;;;;;;6.30;1.50;;;;;;;;;;6236497;28;20304;-69
2023/09/20 00:26:56;;;;;;;3.33;1.60;;;;;;;;;;6237039;28;20299;-70
2023/09/20 00:30:00;;;;;;;1.83;1.50;;;;;;;;;;6236685;28;20347;-69
2023/09/20 00:33:05;;;;;;;1.80;1.63;;;;;;;;;;6251237;28;20316;-69
2023/09/20 00:36:09;;;;;;;1.17;1.17;;;;;;;;;;6236353;28;20297;-69
2023/09/20 00:39:14;;;;;;;1.00;1.00;;;;;;;;;;6251368;28;20241;-70
2023/09/20 00:42:18;;;;;;;2.75;1.08;;;;;;;;;;6236701;28;20300;-68
2023/09/20 00:45:22;;;;;;;0.75;0.75;;;;;;;;;;6250550;28;20308;-69
2023/09/20 00:48:29;;;;;;;1.00;1.00;;;;;;;;;;6250769;28;20292;-69
2023/09/20 00:51:33;;;;;;;0.80;0.80;;;;;;;;;;6236717;28;20344;-69
2023/09/20 00:54:37;;;;;;;1.08;1.08;;;;;;;;;;6235444;28;20300;-69
2023/09/20 00:57:41;;;;;;;0.77;0.77;;;;;;;;;;6236248;28;20311;-71
2023/09/20 01:00:46;;;;;;;0.90;0.90;;;;;;;;;;6249991;28;20355;-69
2023/09/20 01:03:53;;;;;;;1.75;0.95;;;;;;;;;;6232802;28;20286;-69
2023/09/20 01:06:57;;;;;;;0.88;0.88;;;;;;;;;;6235834;28;20304;-68
2023/09/20 01:10:01;;;;;;;0.90;0.85;;;;;;;;;;6235222;28;20303;-68
2023/09/20 01:13:06;;;;;;;0.80;0.80;;;;;;;;;;6209740;28;20312;-70
2023/09/20 01:16:10;;;;;;;0.90;0.90;;;;;;;;;;6210864;28;20304;-71
2023/09/20 01:19:16;;;;;;;0.80;0.50;;;;;;;;;;6211156;28;20309;-69
2023/09/20 01:22:22;;;;;;;0.80;0.80;;;;;;;;;;6211105;28;20309;-69
2023/09/20 01:25:27;;;;;;;1.85;0.70;;;;;;;;;;6210502;28;20304;-68
2023/09/20 01:28:31;;;;;;;0.77;0.77;;;;;;;;;;6225387;28;20297;-69
2023/09/20 01:31:37;;;;;;;0.60;0.60;;;;;;;;;;6210612;28;20333;-69
2023/09/20 01:34:41;;;;;;;0.60;0.60;;;;;;;;;;6207769;28;20313;-68
2023/09/20 01:37:47;;;;;;;1.98;0.60;;;;;;;;;;6210490;28;20308;-68
2023/09/20 01:40:50;;;;;;;1.13;0.55;;;;;;;;;;6209300;28;20328;-69
2023/09/20 01:43:56;;;;;;;0.60;0.60;;;;;;;;;;6232723;28;20517;-68
2023/09/20 01:47:02;;;;;;;0.60;0.60;;;;;;;;;;6234692;28;20487;-68
2023/09/20 01:50:10;;;;;;;0.50;0.50;;;;;;;;;;6249088;28;20485;-69
2023/09/20 01:53:15;;;;;;;0.60;0.60;;;;;;;;;;6233668;28;20317;-68
2023/09/20 01:56:21;;;;;;;0.60;0.60;;;;;;;;;;6249918;28;20420;-70
2023/09/20 01:59:25;;;;;;;0.70;0.70;;;;;;;;;;6248619;28;20451;-70
2023/09/20 02:02:29;;;;;;;0.55;0.55;;;;;;;;;;6247579;28;20304;-69
2023/09/20 02:05:33;;;;;;;0.47;0.47;;;;;;;;;;6248746;28;20299;-69
2023/09/20 02:08:39;;;;;;;0.68;0.68;;;;;;;;;;6248668;28;20585;-68
2023/09/20 02:11:43;;;;;;;0.70;0.70;;;;;;;;;;6233216;28;20320;-68
2023/09/20 02:14:48;;;;;;;0.50;0.50;;;;;;;;;;6233666;28;20295;-69
2023/09/20 02:17:52;;;;;;;0.50;0.50;;;;;;;;;;6232785;28;20296;-69
2023/09/20 02:20:57;;;;;;;0.52;0.52;;;;;;;;;;6233581;28;20304;-70
2023/09/20 02:24:02;;;;;;;0.50;0.50;;;;;;;;;;6233411;28;20721;-68
2023/09/20 02:27:08;;;;;;;0.50;0.50;;;;;;;;;;6233742;28;20312;-69
2023/09/20 02:30:15;;;;;;;0.43;0.43;;;;;;;;;;6233284;28;20295;-70
2023/09/20 02:33:19;;;;;;;0.50;0.50;;;;;;;;;;6247847;28;20320;-69
2023/09/20 02:36:23;;;;;;;0.38;0.38;;;;;;;;;;6233118;28;20307;-69
2023/09/20 02:39:28;;;;;;;0.50;0.50;;;;;;;;;;6233000;28;20304;-71
2023/09/20 02:42:32;;;;;;;0.52;0.50;;;;;;;;;;6233532;28;20307;-68
2023/09/20 02:45:36;;;;;;;0.40;0.40;;;;;;;;;;6232949;28;20300;-69
2023/09/20 02:48:41;;;;;;;0.70;0.50;;;;;;;;;;6247620;28;20316;-68
2023/09/20 02:51:47;;;;;;;0.40;0.40;;;;;;;;;;6233074;28;20307;-69
2023/09/20 02:54:55;;;;;;;0.60;0.60;;;;;;;;;;6231480;28;20617;-70
2023/09/20 02:57:59;;;;;;;0.40;0.40;;;;;;;;;;6248810;28;20299;-69
2023/09/20 03:01:08;;;;;;;0.60;0.60;;;;;;;;;;6239364;28;20308;-70
2023/09/20 03:04:12;;;;;;;0.43;0.43;;;;;;;;;;6226902;28;20300;-70
2023/09/20 03:07:16;;;;;;;0.60;0.60;;;;;;;;;;6239744;28;20305;-70
2023/09/20 03:10:22;;;;;;;0.45;0.45;;;;;;;;;;6244444;28;20332;-71
2023/09/20 03:13:26;;;;;;;0.52;0.52;;;;;;;;;;6230487;28;20247;-69
2023/09/20 03:16:32;;;;;;;3.10;0.50;;;;;;;;;;6232323;28;20308;-70
2023/09/20 03:19:38;;;;;;;0.43;0.43;;;;;;;;;;6238741;28;20309;-69
2023/09/20 03:22:43;;;;;;;0.77;0.70;;;;;;;;;;6205907;28;20369;-72
2023/09/20 03:25:48;;;;;;;0.43;0.43;;;;;;;;;;6239218;28;20305;-69
2023/09/20 03:29:00;;;;;;;0.30;0.30;;;;;;;;;;6221760;28;20300;-68
2023/09/20 03:32:05;;;;;;;0.40;0.40;;;;;;;;;;6223134;28;20281;-70
2023/09/20 03:35:11;;;;;;;0.50;0.50;;;;;;;;;;6238604;28;20320;-71
2023/09/20 03:38:19;;;;;;;0.60;0.60;;;;;;;;;;6222333;28;20510;-71
2023/09/20 03:41:24;;;;;;;0.43;0.43;;;;;;;;;;6223230;28;20285;-69
2023/09/20 03:44:28;;;;;;;0.55;0.55;;;;;;;;;;6235956;28;20327;-69
2023/09/20 03:47:32;;;;;;;0.40;0.40;;;;;;;;;;6247875;28;20439;-70
2023/09/20 03:50:38;;;;;;;0.50;0.50;;;;;;;;;;6246911;28;20632;-68
2023/09/20 03:53:42;;;;;;;0.40;0.40;;;;;;;;;;6231630;28;20240;-70
2023/09/20 03:56:49;;;;;;;0.50;0.50;;;;;;;;;;6247262;28;20316;-70
2023/09/20 03:59:53;;;;;;;0.50;0.50;;;;;;;;;;6246654;28;20304;-69
2023/09/20 04:02:57;;;;;;;0.70;0.70;;;;;;;;;;6229424;28;20301;-70
2023/09/20 04:06:02;;;;;;;0.60;0.60;;;;;;;;;;6247128;28;20296;-70
2023/09/20 04:09:09;;;;;;;0.60;0.60;;;;;;;;;;6231386;28;20300;-70
2023/09/20 04:12:15;;;;;;;0.50;0.50;;;;;;;;;;6232059;28;20296;-70
2023/09/20 04:15:19;;;;;;;0.55;0.55;;;;;;;;;;6231553;28;20541;-68
2023/09/20 04:18:26;;;;;;;0.60;0.60;;;;;;;;;;6231598;28;20300;-68
2023/09/20 04:21:30;;;;;;;0.40;0.40;;;;;;;;;;6246959;28;20312;-70
2023/09/20 04:24:33;;;;;;;0.43;0.43;;;;;;;;;;6246229;28;20304;-69
2023/09/20 04:27:39;;;;;;;0.50;0.50;;;;;;;;;;6246714;28;20296;-69
2023/09/20 04:30:43;;;;;;;0.60;0.60;;;;;;;;;;6229662;28;20296;-69
2023/09/20 04:33:52;;;;;;;1.60;0.60;;;;;;;;;;6246104;28;20413;-68
2023/09/20 04:36:56;;;;;;;0.50;0.50;;;;;;;;;;6250350;28;20304;-68
2023/09/20 04:40:00;;;;;;;0.40;0.40;;;;;;;;;;6250719;28;20296;-68
2023/09/20 04:43:06;;;;;;;0.70;0.70;;;;;;;;;;6233963;28;20319;-67
2023/09/20 04:46:10;;;;;;;0.40;0.40;;;;;;;;;;6250933;28;20492;-68
2023/09/20 04:49:14;;;;;;;1.00;0.50;;;;;;;;;;6250127;28;20323;-68
2023/09/20 04:52:18;;;;;;;0.60;0.60;;;;;;;;;;6250442;28;20557;-68
2023/09/20 04:55:22;;;;;;;0.70;0.70;;;;;;;;;;6250131;28;20487;-70
2023/09/20 04:58:28;;;;;;;0.63;0.63;;;;;;;;;;6250206;28;20316;-68
2023/09/20 05:01:32;;;;;;;0.50;0.50;;;;;;;;;;6233723;28;20296;-69
2023/09/20 05:04:36;;;;;;;0.60;0.60;;;;;;;;;;6247915;28;20328;-69
2023/09/20 05:07:40;;;;;;;0.55;0.55;;;;;;;;;;6236028;28;20355;-70
2023/09/20 05:10:46;;;;;;;0.60;0.60;;;;;;;;;;6242505;28;20296;-68
2023/09/20 05:13:52;;;;;;;0.52;0.52;;;;;;;;;;6207182;28;20301;-69
2023/09/20 05:16:57;;;;;;;0.50;0.50;;;;;;;;;;6241816;28;20353;-68
2023/09/20 05:20:03;;;;;;;0.60;0.60;;;;;;;;;;6224744;28;20305;-68
2023/09/20 05:23:07;;;;;;;0.57;0.57;;;;;;;;;;6210164;28;20320;-69
2023/09/20 05:26:11;;;;;;;0.60;0.60;;;;;;;;;;6210744;28;20488;-71
2023/09/20 05:29:18;;;;;;;0.73;0.73;;;;;;;;;;6241381;28;20435;-69
2023/09/20 05:32:22;;;;;;;0.50;0.50;;;;;;;;;;6208788;28;20305;-69
2023/09/20 05:35:25;;;;;;;0.93;0.93;;;;;;;;;;6209968;28;20317;-71
2023/09/20 05:38:29;;;;;;;0.60;0.60;;;;;;;;;;6209760;28;20300;-69
2023/09/20 05:41:34;;;;;;;0.60;0.60;;;;;;;;;;6210129;28;20474;-70
2023/09/20 05:44:40;;;;;;;1.25;0.47;;;;;;;;;;6232743;28;20311;-69
2023/09/20 05:47:44;;;;;;;29.35;1.17;;;;;;;;;;6233352;28;20327;-69
2023/09/20 05:50:49;;;;;;;0.50;0.50;;;;;;;;;;6234601;28;20421;-71
2023/09/20 05:53:53;;;;;;;0.73;0.73;;;;;;;;;;6233966;28;20308;-71
2023/09/20 05:56:59;;;;;;;0.57;0.57;;;;;;;;;;6234369;28;20304;-69
2023/09/20 06:00:17;;;;;;;0.75;0.75;;;;;;;;;;6233574;28;20574;-70
2023/09/20 06:03:21;;;;;;;0.70;0.70;;;;;;;;;;6232064;28;20296;-69
2023/09/20 06:06:26;;;;;;;0.80;0.80;;;;;;;;;;6234034;28;20304;-70
2023/09/20 06:09:30;;;;;;;0.70;0.70;;;;;;;;;;6233540;28;20339;-68
2023/09/20 06:12:33;;;;;;;0.50;0.50;;;;;;;;;;6234336;28;20304;-68
2023/09/20 06:15:39;;;;;;;0.50;0.50;;;;;;;;;;6233392;28;20320;-70
2023/09/20 06:18:44;;;;;;;0.60;0.60;;;;;;;;;;6233590;28;20491;-68
2023/09/20 06:21:51;;;;;;;0.60;0.60;;;;;;;;;;6233755;28;20589;-69
2023/09/20 06:24:56;;;;;;;4.22;0.73;;;;;;;;;;6233110;28;20304;-69
2023/09/20 06:28:03;;;;;;;2.17;0.60;;;;;;;;;;6233071;28;20292;-68
2023/09/20 06:31:12;;;;;;;0.65;0.65;;;;;;;;;;6233504;28;20301;-68
2023/09/20 06:34:18;;;;;;;0.80;0.80;;;;;;;;;;6231925;28;20466;-69
2023/09/20 06:37:22;;;;;;;0.80;0.80;;;;;;;;;;6233413;28;20328;-68
2023/09/20 06:40:34;;;;;;;2.80;0.68;;;;;;;;;;6233107;28;20296;-68
2023/09/20 06:43:38;;;;;;;0.75;0.75;;;;;;;;;;6232859;28;20304;-68
2023/09/20 06:46:43;;;;;;;0.70;0.70;;;;;;;;;;6233499;28;20624;-68
2023/09/20 06:49:47;;;;;;;1.65;0.65;;;;;;;;;;6232879;28;20304;-67
2023/09/20 06:52:54;;;;;;;0.98;0.90;;;;;;;;;;6232388;28;20272;-68
2023/09/20 06:55:59;;;;;;;2.15;0.98;;;;;;;;;;6233354;28;20557;-67
2023/09/20 06:59:05;;;;;;;0.85;0.85;;;;;;;;;;6232051;28;20308;-68
2023/09/20 07:02:12;;;;;;;0.80;0.80;;;;;;;;;;6231136;28;20292;-67
2023/09/20 07:05:18;;;;;;;0.80;0.80;;;;;;;;;;6232340;28;20546;-67
2023/09/20 07:08:22;;;;;;;0.70;0.70;;;;;;;;;;6232708;28;20284;-70
2023/09/20 07:11:28;;;;;;;0.80;0.80;;;;;;;;;;6232851;28;20300;-76
2023/09/20 07:14:35;;;;;;;0.70;0.70;;;;;;;;;;6231143;28;20308;-69
2023/09/20 07:17:43;;;;;;;4.03;0.80;;;;;;;;;;6232752;28;20308;-69
2023/09/20 07:20:54;;;;;;;0.80;0.80;;;;;;;;;;6232227;28;20497;-69
2023/09/20 07:23:59;;;;;;;2.40;0.90;;;;;;;;;;6247572;28;20336;-69
2023/09/20 07:27:03;;;;;;;1.85;0.85;;;;;;;;;;6232813;28;20313;-69
2023/09/20 07:30:14;;;;;;;0.50;0.50;;;;;;;;;;6231426;28;20300;-69
2023/09/20 07:33:23;;;;;;;0.90;0.70;;;;;;;;;;6232459;28;20285;-69
2023/09/20 07:36:29;;;;;;;1.90;0.90;;;;;;;;;;6232377;28;20558;-69
2023/09/20 07:39:40;;;;;;;1.08;0.95;;;;;;;;;;6232110;28;20304;-69
2023/09/20 07:42:46;;;;;;;3.13;0.85;;;;;;;;;;6232055;28;20291;-69
2023/09/20 07:45:50;;;;;;;1.35;0.80;;;;;;;;;;6248474;28;20422;-71
2023/09/20 07:49:09;;;;;;;0.90;0.90;;;;;;;;;;6246653;28;20300;-71
2023/09/20 07:52:12;;;;;;;0.73;0.73;;;;;;;;;;6230344;28;20320;-70
2023/09/20 07:55:17;;;;;;;0.85;0.82;;;;;;;;;;6231945;28;20296;-68
2023/09/20 07:58:21;;;;;;;2.20;1.20;;;;;;;;;;6232225;28;20296;-68
2023/09/20 08:01:29;;;;;;;3.83;1.00;;;;;;;;;;6232398;28;20492;-69
2023/09/20 08:04:37;;;;;;;2.63;0.95;;;;;;;;;;6230354;28;20624;-69
2023/09/20 08:07:41;;;;;;;1.00;1.00;;;;;;;;;;6230774;28;20324;-69
2023/09/20 08:10:45;;;;;;;4.88;1.00;;;;;;;;;;6235004;28;20307;-69
2023/09/20 08:14:09;;;;;;;1.38;1.00;;;;;;;;;;6235740;28;20293;-68
2023/09/20 08:20:38;;;;;;;4.45;1.00;;;;;;;;;;6236210;28;20300;-68
2023/09/20 09:00:46;;;;;;;1.30;1.10;;;;;;;;;;6234071;28;20301;-67
2023/09/20 09:03:50;;;;;;;3.20;0.98;;;;;;;;;;6233655;28;20296;-68
2023/09/20 09:06:54;;;;;;;1.25;1.00;;;;;;;;;;6235840;28;20546;-68
2023/09/20 09:09:59;;;;;;;0.90;0.82;;;;;;;;;;6235396;28;20301;-71
2023/09/20 09:13:04;;;;;;;1.10;1.10;;;;;;;;;;6235013;28;20378;-70
2023/09/20 09:16:08;;;;;;;1.98;1.20;;;;;;;;;;6235475;28;20304;-69
2023/09/20 09:19:12;;;;;;;0.93;0.90;;;;;;;;;;6235115;28;20327;-68
2023/09/20 09:22:16;;;;;;;2.00;0.90;;;;;;;;;;6235032;28;20292;-69
2023/09/20 09:25:30;;;;;;;0.98;0.90;;;;;;;;;;6235088;28;20312;-69
2023/09/20 09:28:37;;;;;;;1.35;0.90;;;;;;;;;;6234561;28;20296;-72
2023/09/20 09:31:41;;;;;;;1.00;1.00;;;;;;;;;;6234776;28;20324;-69
2023/09/20 09:34:45;;;;;;;2.00;1.20;;;;;;;;;;6234223;28;20316;-69
2023/09/20 09:37:51;;;;;;;1.92;1.00;;;;;;;;;;6233466;28;20315;-69
2023/09/20 09:40:57;;;;;;;1.10;1.00;;;;;;;;;;6234795;28;20260;-71
2023/09/20 09:44:01;;;;;;;2.80;1.20;;;;;;;;;;6234419;28;20316;-69
2023/09/20 09:47:05;;;;;;;1.20;1.20;;;;;;;;;;6234844;28;20276;-69
2023/09/20 09:50:09;;;;;;;0.90;0.90;;;;;;;;;;6234176;28;20303;-70
2023/09/20 09:53:15;;;;;;;0.98;0.98;;;;;;;;;;6234341;28;20296;-69
2023/09/20 09:56:20;;;;;;;1.45;1.35;;;;;;;;;;6234299;28;20486;-70
2023/09/20 09:59:24;;;;;;;4.22;1.02;;;;;;;;;;6234027;28;20295;-69
2023/09/20 10:02:32;;;;;;;1.40;0.80;;;;;;;;;;6233224;28;20308;-68
2023/09/20 10:05:37;;;;;;;2.10;0.88;;;;;;;;;;6235276;28;20407;-68
2023/09/20 10:08:43;;;;;;;2.38;1.00;;;;;;;;;;6233821;28;20363;-68
2023/09/20 10:11:49;;;;;;;1.38;1.10;;;;;;;;;;6233776;28;20363;-69
2023/09/20 10:14:53;;;;;;;1.10;1.10;;;;;;;;;;6233811;28;20323;-69
2023/09/20 10:17:59;;;;;;;3.10;1.10;;;;;;;;;;6234272;28;20320;-69
2023/09/20 10:21:10;;;;;;;3.50;1.05;;;;;;;;;;6233942;28;20442;-69
2023/09/20 10:24:27;;;;;;;1.20;1.20;;;;;;;;;;6233797;28;20327;-70
2023/09/20 10:27:34;;;;;;;1.40;1.30;;;;;;;;;;6234513;28;20289;-69
2023/09/20 10:30:56;;;;;;;3.60;1.23;;;;;;;;;;6233406;28;20593;-68
2023/09/20 10:34:00;;;;;;;1.88;1.10;;;;;;;;;;6232730;28;20340;-68
2023/09/20 10:37:08;;;;;;;2.35;1.30;;;;;;;;;;6233496;28;20311;-69
2023/09/20 10:40:13;;;;;;;0.82;0.80;;;;;;;;;;6233330;28;20570;-67
2023/09/20 10:43:25;;;;;;;1.05;1.00;;;;;;;;;;6233405;28;20613;-68
2023/09/20 10:46:36;;;;;;;1.00;1.00;;;;;;;;;;6233506;28;20292;-68
2023/09/20 10:49:45;;;;;;;1.08;1.00;;;;;;;;;;6233205;28;20312;-70
2023/09/20 10:52:57;;;;;;;1.02;1.02;;;;;;;;;;6232077;28;20272;-69
2023/09/20 10:56:01;;;;;;;1.27;1.05;;;;;;;;;;6232859;28;20464;-69
2023/09/20 10:59:09;;;;;;;2.65;0.98;;;;;;;;;;6232702;28;20311;-69
2023/09/20 11:02:16;;;;;;;1.45;1.00;;;;;;;;;;6231319;28;20300;-69
2023/09/20 11:05:21;;;;;;;1.70;0.85;;;;;;;;;;6232967;28;20304;-69
2023/09/20 11:08:26;;;;;;;4.47;1.40;;;;;;;;;;6232483;28;20304;-69
2023/09/20 11:11:29;;;;;;;3.65;1.15;;;;;;;;;;6232445;28;20280;-68
2023/09/20 11:14:39;;;;;;;3.42;1.10;;;;;;;;;;6232296;28;20606;-70
2023/09/20 11:17:45;;;;;;;1.50;0.90;;;;;;;;;;6247767;28;20239;-68
2023/09/20 11:20:49;;;;;;;0.82;0.82;;;;;;;;;;6233339;28;20292;-67
2023/09/20 11:23:53;;;;;;;0.93;0.93;;;;;;;;;;6232453;28;20308;-69
2023/09/20 11:26:57;;;;;;;3.30;1.00;;;;;;;;;;6233247;28;20292;-70
2023/09/20 11:30:06;;;;;;;3.30;1.10;;;;;;;;;;6232284;28;20295;-68
2023/09/20 11:33:28;;;;;;;2.75;1.17;;;;;;;;;;6231943;28;20588;-68
2023/09/20 11:36:38;;;;;;;1.95;1.45;;;;;;;;;;6232747;28;20300;-68
2023/09/20 11:39:43;;;;;;;1.08;0.90;;;;;;;;;;6232392;28;20373;-67
2023/09/20 11:42:47;;;;;;;2.75;0.85;;;;;;;;;;6247275;28;20312;-66
2023/09/20 11:45:53;;;;;;;1.23;1.05;;;;;;;;;;6236568;28;20303;-68
2023/09/20 11:49:08;;;;;;;0.82;0.82;;;;;;;;;;6252001;28;20343;-67
2023/09/20 11:52:12;;;;;;;0.73;0.73;;;;;;;;;;6237646;28;20453;-67
2023/09/20 11:55:16;;;;;;;1.55;0.90;;;;;;;;;;6237225;28;20308;-66
2023/09/20 11:58:20;;;;;;;5.43;1.35;;;;;;;;;;6237075;28;20311;-67
2023/09/20 12:01:29;;;;;;;1.00;1.00;;;;;;;;;;6237942;28;20472;-66
2023/09/20 12:04:33;;;;;;;1.63;1.10;;;;;;;;;;6234641;28;20303;-67
2023/09/20 12:07:37;;;;;;;1.75;0.90;;;;;;;;;;6236896;28;20533;-69
2023/09/20 12:10:42;;;;;;;0.85;0.80;;;;;;;;;;6236430;28;20291;-67
2023/09/20 12:13:46;;;;;;;1.80;0.98;;;;;;;;;;6251343;28;20319;-68
2023/09/20 12:16:51;;;;;;;5.15;1.15;;;;;;;;;;6236410;28;20276;-69
2023/09/20 12:19:55;;;;;;;1.83;1.10;;;;;;;;;;6236571;28;20296;-69
2023/09/20 12:23:01;;;;;;;2.00;1.20;;;;;;;;;;6236272;28;20248;-68
2023/09/20 12:26:06;;;;;;;1.80;1.00;;;;;;;;;;6236482;28;20249;-68
2023/09/20 12:29:10;;;;;;;3.63;1.00;;;;;;;;;;6250980;28;20303;-69
2023/09/20 12:32:15;;;;;;;2.97;1.20;;;;;;;;;;6236650;28;20426;-68
2023/09/20 12:35:19;;;;;;;1.50;1.40;;;;;;;;;;6235504;28;20296;-68
2023/09/20 12:38:23;;;;;;;1.20;1.10;;;;;;;;;;6235387;28;20300;-68
2023/09/20 12:41:27;;;;;;;2.17;1.42;;;;;;;;;;6236181;28;20468;-69
2023/09/20 12:44:31;;;;;;;2.05;1.20;;;;;;;;;;6235325;28;20602;-68
2023/09/20 12:47:39;;;;;;;2.20;1.50;;;;;;;;;;6235709;28;20327;-69
2023/09/20 12:50:46;;;;;;;0.90;0.90;;;;;;;;;;6235272;28;20288;-69
2023/09/20 12:53:50;;;;;;;3.10;1.30;;;;;;;;;;6235516;28;20292;-69
2023/09/20 12:56:55;;;;;;;1.48;1.10;;;;;;;;;;6234932;28;20300;-69
2023/09/20 13:00:00;;;;;;;5.10;1.67;;;;;;;;;;6235438;28;20271;-68
2023/09/20 13:03:07;;;;;;;1.30;1.30;;;;;;;;;;6233923;28;20304;-68
2023/09/20 13:06:14;;;;;;;1.70;1.50;;;;;;;;;;6236039;28;20288;-70
2023/09/20 13:09:19;;;;;;;1.08;1.08;;;;;;;;;;6235077;28;20632;-68
2023/09/20 13:12:23;;;;;;;1.58;1.40;;;;;;;;;;6250367;28;20307;-68
2023/09/20 13:15:28;;;;;;;1.75;1.20;;;;;;;;;;6235129;28;20580;-68
2023/09/20 13:18:36;;;;;;;1.23;1.23;;;;;;;;;;6234712;28;20300;-67
2023/09/20 13:21:42;;;;;;;2.58;1.90;;;;;;;;;;6235253;28;20304;-67
2023/09/20 13:24:47;;;;;;;2.13;1.50;;;;;;;;;;6234889;28;20309;-69
2023/09/20 13:27:51;;;;;;;3.20;1.73;;;;;;;;;;6234466;28;20472;-68
2023/09/20 13:30:54;;;;;;;2.20;1.40;;;;;;;;;;6235244;28;20296;-67
2023/09/20 13:34:02;;;;;;;1.80;1.70;;;;;;;;;;6234698;28;20317;-67
2023/09/20 13:37:06;;;;;;;2.20;1.70;;;;;;;;;;6235009;28;20624;-72
2023/09/20 13:40:12;;;;;;;4.00;1.83;;;;;;;;;;6234809;28;20441;-73
2023/09/20 13:43:18;;;;;;;3.92;1.73;;;;;;;;;;6235932;28;20324;-73
2023/09/20 13:46:25;;;;;;;4.32;2.00;;;;;;;;;;6235988;28;20296;-72
2023/09/20 13:49:30;;;;;;;9.38;2.05;;;;;;;;;;6234138;28;20512;-69
2023/09/20 13:52:34;;;;;;;1.90;1.80;;;;;;;;;;6234675;28;20300;-69
2023/09/20 13:55:39;;;;;;;3.38;1.85;;;;;;;;;;6232606;28;20296;-68
2023/09/20 13:58:43;;;;;;;4.15;2.10;;;;;;;;;;6234090;28;20308;-67
2023/09/20 14:01:46;;;;;;;10.63;2.15;;;;;;;;;;6234477;28;20296;-69
2023/09/20 14:04:52;;;;;;;2.92;1.67;;;;;;;;;;6231246;28;20597;-69
2023/09/20 14:07:56;;;;;;;2.88;1.40;;;;;;;;;;6233440;28;20253;-69
2023/09/20 14:11:00;;;;;;;2.47;2.03;;;;;;;;;;6234137;28;20401;-69
2023/09/20 14:14:04;;;;;;;2.50;1.60;;;;;;;;;;6233523;28;20304;-68
2023/09/20 14:17:08;;;;;;;3.58;1.85;;;;;;;;;;6249299;28;20304;-69
2023/09/20 14:20:15;;;;;;;8.18;2.20;;;;;;;;;;6248264;28;20300;-70
2023/09/20 14:23:20;;;;;;;3.22;1.73;;;;;;;;;;6232924;28;20300;-68
2023/09/20 14:26:23;;;;;;;2.38;1.83;;;;;;;;;;6233346;28;20295;-68
2023/09/20 14:29:28;;;;;;;3.75;2.13;;;;;;;;;;6233062;28;20309;-68
2023/09/20 14:32:34;;;;;;;1.90;1.80;;;;;;;;;;6248356;28;20300;-68
2023/09/20 14:35:40;;;;;;;4.57;1.90;;;;;;;;;;6232607;28;20296;-68
2023/09/20 14:38:43;;;;;;;5.13;2.50;;;;;;;;;;6232903;28;20316;-68
2023/09/20 14:41:47;;;;;;;1.75;1.65;;;;;;;;;;6233404;28;20284;-69
2023/09/20 14:44:52;;;;;;;2.95;1.88;;;;;;;;;;6232952;28;20319;-69
2023/09/20 14:47:59;;;;;;;5.00;1.65;;;;;;;;;;6231317;28;20316;-68
2023/09/20 14:51:04;;;;;;;3.63;1.90;;;;;;;;;;6233287;28;20300;-70
2023/09/20 14:54:09;;;;;;;5.22;1.92;;;;;;;;;;6232940;28;20300;-70
2023/09/20 14:57:13;;;;;;;3.47;2.15;;;;;;;;;;6232986;28;20506;-69
2023/09/20 15:00:18;;;;;;;1.77;1.67;;;;;;;;;;6232772;28;20303;-68
2023/09/20 15:03:22;;;;;;;4.90;1.90;;;;;;;;;;6231233;28;20287;-69
2023/09/20 15:06:28;;;;;;;1.90;1.80;;;;;;;;;;6233402;28;20300;-67
2023/09/20 15:09:35;;;;;;;2.20;1.70;;;;;;;;;;6232725;28;20315;-67
2023/09/20 15:12:40;;;;;;;3.08;2.05;;;;;;;;;;6233037;28;20308;-68
2023/09/20 15:15:47;;;;;;;1.80;1.70;;;;;;;;;;6231811;28;20304;-67
2023/09/20 15:18:51;;;;;;;2.22;1.92;;;;;;;;;;6232168;28;20347;-67
2023/09/20 15:21:56;;;;;;;9.80;2.17;;;;;;;;;;6232682;28;20303;-70
2023/09/20 15:25:01;;;;;;;2.75;1.67;;;;;;;;;;6232621;28;20304;-68
2023/09/20 15:28:06;;;;;;;2.28;1.70;;;;;;;;;;6233612;28;20311;-67
2023/09/20 15:31:11;;;;;;;7.05;2.03;;;;;;;;;;6249567;28;20304;-69
2023/09/20 15:34:16;;;;;;;5.30;1.70;;;;;;;;;;6233138;28;20343;-68
2023/09/20 15:37:22;;;;;;;2.03;1.60;;;;;;;;;;6234207;28;20337;-69
2023/09/20 15:40:28;;;;;;;3.92;1.83;;;;;;;;;;6233226;28;20331;-69
2023/09/20 15:43:33;;;;;;;5.43;1.80;;;;;;;;;;6232973;28;20280;-70
2023/09/20 15:46:37;;;;;;;3.05;1.80;;;;;;;;;;6233168;28;20308;-70
2023/09/20 15:49:41;;;;;;;2.70;1.92;;;;;;;;;;6232131;28;20300;-68
2023/09/20 15:52:48;;;;;;;1.95;1.55;;;;;;;;;;6247699;28;20299;-69
2023/09/20 15:55:53;;;;;;;1.80;1.70;;;;;;;;;;6232285;28;20289;-68
2023/09/20 15:58:58;;;;;;;6.22;1.58;;;;;;;;;;6232651;28;20348;-71
2023/09/20 16:02:01;;;;;;;4.72;1.65;;;;;;;;;;6230563;28;20581;-78
2023/09/20 16:05:05;;;;;;;3.00;1.88;;;;;;;;;;6232011;28;20312;-69
2023/09/20 16:08:12;;;;;;;5.50;3.33;;;;;;;;;;6232010;28;20340;-69
2023/09/20 16:11:17;;;;;;;3.15;1.80;;;;;;;;;;6230469;28;20324;-69
2023/09/20 16:14:20;;;;;;;3.22;2.13;;;;;;;;;;6231673;28;20288;-68
2023/09/20 16:17:24;;;;;;;4.55;1.58;;;;;;;;;;6232713;28;20288;-70
2023/09/20 16:20:28;;;;;;;6.82;2.30;;;;;;;;;;6231886;28;20328;-68
2023/09/20 16:23:33;;;;;;;3.72;1.95;;;;;;;;;;6232484;28;20304;-68
2023/09/20 16:26:37;;;;;;;3.55;1.65;;;;;;;;;;6232745;28;20300;-69
2023/09/20 16:29:42;;;;;;;5.28;1.85;;;;;;;;;;6232318;28;20299;-66
2023/09/20 16:32:46;;;;;;;1.70;1.60;;;;;;;;;;6236876;28;20307;-68
2023/09/20 16:35:50;;;;;;;6.57;1.92;;;;;;;;;;6236533;28;20299;-69
2023/09/20 16:38:56;;;;;;;3.33;1.92;;;;;;;;;;6236091;28;20297;-71
2023/09/20 16:42:00;;;;;;;1.70;1.60;;;;;;;;;;6236650;28;20315;-69
2023/09/20 16:45:05;;;;;;;5.00;1.90;;;;;;;;;;6235905;28;20308;-69
2023/09/20 16:48:09;;;;;;;2.15;2.00;;;;;;;;;;6236057;28;20304;-69
2023/09/20 16:51:13;;;;;;;5.15;1.92;;;;;;;;;;6236762;28;20565;-69
2023/09/20 16:54:19;;;;;;;4.03;1.90;;;;;;;;;;6236263;28;20300;-68
2023/09/20 16:57:23;;;;;;;5.10;1.80;;;;;;;;;;6236362;28;20300;-69
2023/09/20 17:00:30;;;;;;;2.85;1.85;;;;;;;;;;6235730;28;20324;-70
2023/09/20 17:03:34;;;;;;;3.47;1.83;;;;;;;;;;6234369;28;20312;-69
2023/09/20 17:06:38;;;;;;;4.47;2.00;;;;;;;;;;6236507;28;20296;-68
2023/09/20 17:09:43;;;;;;;2.92;2.10;;;;;;;;;;6235615;28;20315;-69
2023/09/20 17:12:47;;;;;;;7.15;2.03;;;;;;;;;;6233812;28;20292;-72
2023/09/20 17:15:52;;;;;;;4.78;2.10;;;;;;;;;;6236284;28;20308;-69
2023/09/20 17:18:56;;;;;;;5.40;2.17;;;;;;;;;;6250554;28;20299;-70
2023/09/20 17:22:06;;;;;;;4.57;2.40;;;;;;;;;;6235012;28;20301;-68
2023/09/20 17:25:13;;;;;;;5.65;2.00;;;;;;;;;;6235259;28;20300;-69
2023/09/20 17:28:17;;;;;;;4.63;2.38;;;;;;;;;;6235470;28;20288;-68
2023/09/20 17:31:21;;;;;;;5.55;1.90;;;;;;;;;;6236101;28;20312;-71
2023/09/20 17:34:25;;;;;;;6.72;2.25;;;;;;;;;;6234909;28;20592;-68
2023/09/20 17:37:30;;;;;;;2.72;2.00;;;;;;;;;;6250976;28;20415;-70
2023/09/20 17:40:35;;;;;;;1.92;1.83;;;;;;;;;;6235595;28;20304;-68
2023/09/20 17:43:39;;;;;;;3.22;2.10;;;;;;;;;;6234855;28;20457;-68
2023/09/20 17:46:44;;;;;;;5.93;2.10;;;;;;;;;;6236224;28;20308;-69
2023/09/20 17:49:48;;;;;;;2.28;1.95;;;;;;;;;;6235306;28;20299;-69
2023/09/20 17:52:52;;;;;;;2.58;2.10;;;;;;;;;;6234561;28;20268;-70
2023/09/20 17:55:57;;;;;;;1.98;1.77;;;;;;;;;;6236189;28;20258;-70
2023/09/20 17:59:01;;;;;;;3.95;2.40;;;;;;;;;;6233944;28;20331;-68
2023/09/20 18:02:09;;;;;;;6.32;2.30;;;;;;;;;;6233488;28;20268;-68
2023/09/20 18:05:13;;;;;;;7.15;2.10;;;;;;;;;;6234716;28;20284;-68
2023/09/20 18:08:18;;;;;;;8.23;2.45;;;;;;;;;;6234724;28;20292;-68
2023/09/20 18:11:24;;;;;;;9.63;2.95;;;;;;;;;;6235398;28;20302;-70
2023/09/20 18:14:29;;;;;;;5.78;2.30;;;;;;;;;;6234437;28;20290;-72
2023/09/20 18:17:33;;;;;;;5.35;2.28;;;;;;;;;;6235475;28;20296;-71
2023/09/20 18:20:39;;;;;;;3.10;2.35;;;;;;;;;;6234969;28;20288;-71
2023/09/20 18:23:43;;;;;;;13.75;2.50;;;;;;;;;;6234196;28;20292;-69
2023/09/20 18:26:49;;;;;;;3.85;2.25;;;;;;;;;;6249758;28;20324;-69
2023/09/20 18:29:53;;;;;;;4.00;2.20;;;;;;;;;;6233982;28;20616;-71
2023/09/20 18:32:57;;;;;;;11.98;2.60;;;;;;;;;;6234008;28;20323;-69
2023/09/20 18:36:01;;;;;;;5.43;2.10;;;;;;;;;;6234163;28;20313;-69
2023/09/20 18:39:12;;;;;;;3.53;2.50;;;;;;;;;;6233712;28;20304;-69
2023/09/20 18:42:19;;;;;;;3.03;2.22;;;;;;;;;;6234212;28;20304;-71
2023/09/20 18:45:23;;;;;;;4.32;2.75;;;;;;;;;;6233448;28;20292;-69
2023/09/20 18:48:27;;;;;;;4.50;2.10;;;;;;;;;;6233395;28;20292;-68
2023/09/20 18:51:31;;;;;;;5.28;2.25;;;;;;;;;;6233616;28;20335;-70
2023/09/20 18:54:36;;;;;;;3.00;2.25;;;;;;;;;;6232468;28;20309;-69
2023/09/20 18:57:43;;;;;;;3.08;2.47;;;;;;;;;;6233947;28;20300;-70
2023/09/20 19:00:47;;;;;;;8.00;3.13;;;;;;;;;;6233252;28;20312;-69
2023/09/20 19:03:51;;;;;;;5.95;2.72;;;;;;;;;;6231686;28;20304;-69
2023/09/20 19:06:56;;;;;;;9.77;4.85;;;;;;;;;;6233739;28;20308;-68
2023/09/20 19:10:00;;;;;;;8.90;4.50;;;;;;;;;;6233030;28;20292;-70
2023/09/20 19:13:05;;;;;;;14.30;5.10;;;;;;;;;;6233232;28;20464;-68